NCAR-RAP Real-Time Weather Data

Output produced by METARs form (19 June 2019  11:31 UTC)
found at http://weather.rap.ucar.edu/surface/
 
KBIS 191052Z 07007KT 10SM BKN037 BKN050 OVC080 15/13 A2984 RMK AO2 SLP100 T01500128
KBIS 190952Z AUTO 11006KT 10SM OVC044 15/13 A2985 RMK AO2 SLP104 T01500133
KBIS 190852Z AUTO 10007KT 10SM BKN043 BKN055 15/12 A2986 RMK AO2 SLP106 60027 T01500122 58016
KBIS 190752Z AUTO 08004KT 10SM BKN050 OVC110 15/13 A2987 RMK AO2 SLP112 T01500133
KBIS 190652Z AUTO 08007KT 10SM OVC050 16/13 A2989 RMK AO2 RAE25 SLP119 P0027 T01610128
KBIS 190552Z AUTO 12009KT 5SM -RA BR SCT029 BKN049 OVC055 16/14 A2991 RMK AO2 RAB22 SLP124 P0031 60031 T01560139 10233 20156 402390089 50002
KBIS 190550Z AUTO 12007KT 3SM -RA BR SCT029 BKN049 OVC070 16/14 A2991 RMK AO2 RAB22 P0031
KBIS 190540Z AUTO 13009KT 1 3/4SM +RA SCT029 BKN060 OVC075 16/13 A2991 RMK AO2 RAB22 P0008 T01610133
KBIS 190452Z AUTO 15006KT 10SM FEW055 BKN080 OVC095 17/12 A2992 RMK AO2 SLP127 T01720117
KBIS 190352Z 09006KT 10SM OVC080 18/11 A2991 RMK AO2 SLP123 T01780111
KBIS 190252Z 09008KT 10SM FEW090 19/11 A2990 RMK AO2 SLP121 T01940111 58003
KBIS 190152Z 11009KT 10SM SCT075 22/11 A2991 RMK AO2 SLP123 T02170111
KBIS 190052Z 10008KT 10SM SCT070 BKN085 22/11 A2991 RMK AO2 SLP124 T02220106
KBIS 182352Z 11010KT 10SM FEW050 BKN085 23/11 A2991 RMK AO2 SLP126 T02330106 10239 20217 56015
KBIS 182252Z 09010KT 3SM HZ BKN048 BKN060 BKN075 22/11 A2991 RMK AO2 SLP130 T02170106
KBIS 182152Z VRB06KT 10SM BKN050 OVC065 23/11 A2993 RMK AO2 SLP135 T02330106
KBIS 182112Z 12010KT 10SM BKN050 BKN060 OVC090 23/10 A2995 RMK AO2 T02330100
KBIS 182105Z 13006KT 1 3/4SM BKN055 OVC090 22/10 A2995 RMK AO2 VIS 1/4V5 T02220100
KBIS 182052Z 14005KT 10SM OVC055 23/11 A2995 RMK AO2 SLP142 T02330106 57020
KBIS 181952Z VRB05KT 10SM SCT050 BKN060 22/09 A2997 RMK AO2 SLP149 T02220089
KBIS 181852Z 13006KT 10SM FEW075 22/11 A3000 RMK AO2 SLP156 T02170106
KBIS 181752Z VRB04KT 10SM BKN046 BKN085 21/10 A3002 RMK AO2 SLP163 T02110100 10217 20106 56016
KBIS 181652Z 10006KT 7SM SCT038 BKN055 21/10 A3003 RMK AO2 SLP168 T02060100
KBIS 181552Z 10007KT 10SM CLR 19/10 A3005 RMK AO2 SLP173 T01940100
KBIS 181542Z VRB06KT 2SM HZ CLR 19/11 A3005 RMK AO2 T01940106
KBIS 181452Z 02003KT 10SM FEW065 BKN095 17/12 A3006 RMK AO2 SLP180 T01720122 50001